Time;durP1;ratioP1;P1;durP2;ratioP2;P2;SDS_P1;SDS_P2;PMS_P1;PMS_P2;Temp;Humidity;BMP_temperature;BMP_pressure;BME280_temperature;BME280_humidity;BME280_pressure;Samples;Min_cycle;Max_cycle;Signal;HPM_P1;HPM_P2
2021/12/02 00:00:48;;;;;;;3.10;0.70;;;;;;;4.33;74.33;98525.56;4975320;28;20223;-73
2021/12/02 00:03:15;;;;;;;3.90;1.00;;;;;;;4.29;74.48;98546.03;4984215;28;20719;-74
2021/12/02 00:05:41;;;;;;;3.83;0.70;;;;;;;4.27;74.45;98529.50;4979993;28;20215;-74
2021/12/02 00:08:08;;;;;;;3.87;0.77;;;;;;;4.26;74.18;98538.34;4980903;28;20204;-73
2021/12/02 00:10:35;;;;;;;2.40;0.50;;;;;;;4.29;74.61;98537.28;4979319;28;20203;-73
2021/12/02 00:13:02;;;;;;;6.17;0.90;;;;;;;4.30;74.34;98544.25;4987264;28;20235;-73
2021/12/02 00:15:35;;;;;;;3.17;0.67;;;;;;;4.31;74.50;98549.38;4980446;28;20214;-73
2021/12/02 00:18:30;;;;;;;4.67;0.80;;;;;;;4.33;74.04;98554.53;4982814;28;20208;-72
2021/12/02 00:21:03;;;;;;;2.43;0.80;;;;;;;4.35;74.09;98552.63;4975133;28;20212;-74
2021/12/02 00:23:36;;;;;;;2.70;0.60;;;;;;;4.33;73.90;98554.53;4979873;28;20739;-73
2021/12/02 00:26:05;;;;;;;4.83;0.70;;;;;;;4.34;73.50;98553.59;4977944;28;20207;-74
2021/12/02 00:28:32;;;;;;;2.23;0.60;;;;;;;4.34;74.15;98548.31;4981799;28;20295;-73
2021/12/02 00:31:00;;;;;;;2.93;1.07;;;;;;;4.32;73.92;98551.06;4988559;28;20212;-74
2021/12/02 00:33:31;;;;;;;2.03;0.60;;;;;;;4.32;74.05;98551.06;4984635;28;20227;-73
2021/12/02 00:35:58;;;;;;;2.63;0.70;;;;;;;4.34;74.10;98551.78;4988637;28;20214;-73
2021/12/02 00:38:26;;;;;;;3.67;1.03;;;;;;;4.36;74.12;98560.44;4989840;28;20301;-73
2021/12/02 00:40:53;;;;;;;2.07;0.73;;;;;;;4.37;73.93;98567.41;4983982;28;20661;-74
2021/12/02 00:43:20;;;;;;;3.37;1.00;;;;;;;4.36;73.74;98578.03;4989352;28;20234;-73
2021/12/02 00:45:47;;;;;;;3.03;0.80;;;;;;;4.36;74.13;98564.88;4989313;28;20221;-74
2021/12/02 00:48:14;;;;;;;5.43;0.80;;;;;;;4.35;73.69;98565.81;4984192;28;20624;-74
2021/12/02 00:50:46;;;;;;;3.67;0.90;;;;;;;4.37;74.08;98580.56;4988013;28;20207;-73
2021/12/02 00:53:12;;;;;;;6.17;1.37;;;;;;;4.37;74.19;98587.63;4986513;28;20228;-73
2021/12/02 00:55:41;;;;;;;4.60;0.90;;;;;;;4.38;73.57;98603.34;4988411;28;20199;-74
2021/12/02 00:58:10;;;;;;;2.77;0.60;;;;;;;4.39;73.86;98601.56;4984268;28;20200;-73
2021/12/02 01:00:36;;;;;;;3.53;0.50;;;;;;;4.39;73.70;98596.28;4990905;28;20214;-73
2021/12/02 01:03:03;;;;;;;5.20;0.93;;;;;;;4.38;73.73;98608.63;4990419;28;20245;-73
2021/12/02 01:05:30;;;;;;;2.60;0.87;;;;;;;4.38;74.25;98616.53;4993047;28;20210;-74
2021/12/02 01:08:00;;;;;;;3.33;0.70;;;;;;;4.38;73.92;98620.94;4983848;28;20230;-73
2021/12/02 01:10:27;;;;;;;3.93;0.83;;;;;;;4.37;73.43;98629.81;4990026;28;20687;-73
2021/12/02 01:12:54;;;;;;;3.73;0.77;;;;;;;4.36;73.73;98628.13;4989889;28;20231;-74
2021/12/02 01:15:20;;;;;;;2.23;0.73;;;;;;;4.35;73.58;98636.97;4988638;28;20207;-73
2021/12/02 01:17:47;;;;;;;4.07;0.90;;;;;;;4.35;73.34;98626.44;4992309;28;20231;-74
2021/12/02 01:20:13;;;;;;;6.10;1.20;;;;;;;4.35;73.10;98637.81;4992993;28;20211;-73
2021/12/02 01:22:42;;;;;;;3.10;0.80;;;;;;;4.33;73.22;98639.72;4988981;28;20743;-74
2021/12/02 01:25:10;;;;;;;3.63;1.07;;;;;;;4.33;73.41;98644.13;4990428;28;20586;-73
2021/12/02 01:27:39;;;;;;;4.20;0.83;;;;;;;4.33;72.94;98623.06;4989456;28;20574;-74
2021/12/02 01:30:06;;;;;;;5.50;1.73;;;;;;;4.36;73.10;98638.66;4992891;28;20215;-73
2021/12/02 01:32:34;;;;;;;2.87;0.73;;;;;;;4.35;73.76;98634.34;4986224;28;20239;-74
2021/12/02 01:35:04;;;;;;;3.27;0.80;;;;;;;4.33;73.84;98665.22;4992045;28;20681;-74
2021/12/02 01:37:31;;;;;;;7.00;0.90;;;;;;;4.33;74.04;98652.03;4987766;28;20204;-73
2021/12/02 01:39:59;;;;;;;4.47;1.00;;;;;;;4.29;74.33;98646.16;4990986;28;20210;-73
2021/12/02 01:42:28;;;;;;;5.60;1.50;;;;;;;4.29;74.26;98646.16;4989973;28;20208;-73
2021/12/02 01:44:58;;;;;;;3.10;0.63;;;;;;;4.27;74.55;98652.47;4992649;28;23041;-74
2021/12/02 01:47:29;;;;;;;2.07;1.50;;;;;;;4.25;74.64;98651.75;4986421;28;20234;-73
2021/12/02 01:49:59;;;;;;;3.67;0.83;;;;;;;4.23;74.58;98651.00;4990692;28;20203;-74
2021/12/02 01:52:30;;;;;;;3.67;0.90;;;;;;;4.22;74.89;98655.44;4988244;28;20208;-73
2021/12/02 01:55:08;;;;;;;4.70;1.00;;;;;;;4.21;74.89;98648.47;4988336;28;20234;-74
2021/12/02 01:57:37;;;;;;;3.70;0.93;;;;;;;4.22;75.51;98649.31;4986620;28;20203;-73
2021/12/02 02:00:09;;;;;;;5.37;0.90;;;;;;;4.19;75.27;98643.31;4989435;28;20565;-74
2021/12/02 02:02:37;;;;;;;2.80;0.50;;;;;;;4.17;75.47;98645.19;4989576;28;20776;-73
2021/12/02 02:05:08;;;;;;;6.07;0.93;;;;;;;4.18;75.83;98657.44;4991909;28;20211;-74
2021/12/02 02:07:41;;;;;;;6.17;0.80;;;;;;;4.16;75.90;98661.97;4988879;28;20510;-74
2021/12/02 02:10:07;;;;;;;4.67;1.00;;;;;;;4.16;75.58;98654.06;4988788;28;20204;-73
2021/12/02 02:12:35;;;;;;;6.90;1.37;;;;;;;4.15;75.69;98662.91;4988460;28;20294;-74
2021/12/02 02:15:03;;;;;;;5.67;1.20;;;;;;;4.13;75.38;98670.06;4989330;28;20207;-74
2021/12/02 02:17:35;;;;;;;7.57;1.27;;;;;;;4.11;75.24;98671.16;4989972;28;20200;-73
2021/12/02 02:20:05;;;;;;;5.80;1.17;;;;;;;4.09;75.19;98668.63;4987246;28;20737;-74
2021/12/02 02:22:33;;;;;;;5.20;0.90;;;;;;;4.09;75.35;98673.88;4988574;28;20713;-74
2021/12/02 02:25:00;;;;;;;5.20;0.77;;;;;;;4.08;75.44;98666.94;4988739;28;20219;-73
2021/12/02 02:27:27;;;;;;;4.63;1.00;;;;;;;4.06;74.86;98667.97;4985530;28;20247;-74
2021/12/02 02:29:53;;;;;;;3.97;1.10;;;;;;;4.04;74.85;98670.72;4988996;28;20211;-74
2021/12/02 02:32:24;;;;;;;3.77;0.90;;;;;;;4.02;74.99;98674.38;4987215;28;20218;-73
2021/12/02 02:34:51;;;;;;;7.73;0.83;;;;;;;4.00;74.50;98678.91;4986488;28;20218;-73
2021/12/02 02:37:17;;;;;;;3.17;0.90;;;;;;;3.99;74.73;98688.59;4991684;28;20207;-71
2021/12/02 02:39:45;;;;;;;4.80;0.80;;;;;;;3.97;74.53;98693.13;4989710;28;20208;-74
2021/12/02 02:42:12;;;;;;;7.10;1.03;;;;;;;3.95;73.88;98684.47;4990399;28;20207;-73
2021/12/02 02:44:38;;;;;;;6.03;1.47;;;;;;;3.93;74.27;98696.09;4985038;28;20215;-73
2021/12/02 02:47:05;;;;;;;3.60;1.07;;;;;;;3.91;73.99;98690.94;4989666;28;20234;-74
2021/12/02 02:49:31;;;;;;;5.23;1.20;;;;;;;3.86;74.38;98682.50;4987851;28;20202;-73
2021/12/02 02:51:58;;;;;;;4.73;1.03;;;;;;;3.86;74.09;98690.38;4987579;28;20214;-73
2021/12/02 02:54:25;;;;;;;4.50;1.00;;;;;;;3.86;73.76;98692.19;4983343;28;20219;-74
2021/12/02 02:56:58;;;;;;;8.40;1.57;;;;;;;3.85;73.66;98699.22;4986694;28;20227;-73
2021/12/02 02:59:32;;;;;;;4.60;1.30;;;;;;;3.83;73.61;98693.22;4985943;28;20204;-73
2021/12/02 03:02:16;;;;;;;4.67;0.70;;;;;;;3.78;73.84;98703.22;4984068;28;20237;-73
2021/12/02 03:04:50;;;;;;;5.63;1.10;;;;;;;3.75;74.29;98704.28;4979781;28;20235;-74
2021/12/02 03:07:23;;;;;;;4.50;0.80;;;;;;;3.71;73.86;98702.78;4987087;28;20305;-73
2021/12/02 03:10:02;;;;;;;8.00;0.77;;;;;;;3.69;73.74;98690.66;4984871;28;20204;-73
2021/12/02 03:12:33;;;;;;;4.00;0.97;;;;;;;3.68;73.58;98704.78;4982842;28;20350;-73
2021/12/02 03:17:45;;;;;;;5.57;1.10;;;;;;;3.65;72.82;98713.72;4982653;28;20223;-73
2021/12/02 03:20:12;;;;;;;7.00;1.43;;;;;;;3.65;72.78;98720.78;4987354;28;20199;-73
2021/12/02 03:22:40;;;;;;;3.70;1.10;;;;;;;3.65;73.04;98729.50;4990809;28;20249;-73
2021/12/02 03:25:08;;;;;;;6.70;1.00;;;;;;;3.67;72.54;98729.41;4989614;28;20227;-73
2021/12/02 03:27:37;;;;;;;4.70;1.13;;;;;;;3.68;72.41;98739.00;4984410;28;20306;-74
2021/12/02 03:30:06;;;;;;;6.33;0.70;;;;;;;3.69;73.15;98738.91;4990472;28;20681;-73
2021/12/02 03:35:01;;;;;;;4.53;0.87;;;;;;;3.72;72.38;98737.88;5051576;22;20241;-71
2021/12/02 03:37:28;;;;;;;3.43;0.70;;;;;;;3.72;73.03;98741.34;5027350;28;20195;-72
2021/12/02 03:39:54;;;;;;;3.43;0.67;;;;;;;3.72;72.28;98740.50;5029892;28;20206;-71
2021/12/02 03:42:21;;;;;;;9.13;1.60;;;;;;;3.69;72.91;98740.69;5036363;28;20667;-72
2021/12/02 03:44:49;;;;;;;5.27;2.33;;;;;;;3.69;73.26;98735.44;5029274;28;20225;-71
2021/12/02 03:47:15;;;;;;;8.30;0.90;;;;;;;3.66;72.72;98743.53;5022725;28;20232;-72
2021/12/02 03:49:42;;;;;;;5.20;1.17;;;;;;;3.65;73.14;98749.72;5024011;28;20209;-72
2021/12/02 03:52:09;;;;;;;3.33;0.77;;;;;;;3.62;73.05;98744.66;5024037;28;20665;-71
2021/12/02 03:54:36;;;;;;;6.30;1.07;;;;;;;3.59;73.02;98742.22;5029193;28;20222;-72
2021/12/02 03:57:02;;;;;;;3.30;0.90;;;;;;;3.57;73.33;98742.34;5026691;28;20230;-72
2021/12/02 03:59:29;;;;;;;2.90;0.80;;;;;;;3.55;73.52;98736.34;5026615;28;20206;-71
2021/12/02 04:01:57;;;;;;;4.80;0.90;;;;;;;3.53;74.06;98737.38;5031231;28;20206;-71
2021/12/02 04:04:23;;;;;;;3.93;0.87;;;;;;;3.52;73.86;98740.94;5036299;28;20226;-71
2021/12/02 04:06:50;;;;;;;2.47;1.00;;;;;;;3.49;73.92;98742.81;5036449;28;20213;-71
2021/12/02 04:09:19;;;;;;;3.77;1.20;;;;;;;3.45;74.22;98746.59;5031576;28;20284;-72
2021/12/02 04:11:52;;;;;;;6.90;1.10;;;;;;;3.41;73.85;98750.34;5028778;28;20324;-72
2021/12/02 04:14:22;;;;;;;3.50;0.67;;;;;;;3.37;73.88;98746.25;5029963;28;20257;-72
2021/12/02 04:16:53;;;;;;;5.13;1.10;;;;;;;3.35;73.78;98755.19;5034655;28;20225;-73
2021/12/02 04:19:22;;;;;;;3.60;1.10;;;;;;;3.31;73.97;98751.91;5023798;28;20224;-70
2021/12/02 04:21:49;;;;;;;4.67;0.73;;;;;;;3.28;73.51;98753.88;5035048;28;20205;-72
2021/12/02 04:24:16;;;;;;;6.10;1.10;;;;;;;3.25;74.23;98748.81;5035190;28;20251;-73
2021/12/02 04:26:43;;;;;;;4.47;1.23;;;;;;;3.23;73.91;98761.22;5036658;28;20702;-72
2021/12/02 04:29:10;;;;;;;6.17;1.20;;;;;;;3.21;74.07;98763.13;5032075;28;20577;-71
2021/12/02 04:31:37;;;;;;;6.33;1.30;;;;;;;3.17;74.46;98764.25;5031392;28;20578;-73
2021/12/02 04:34:03;;;;;;;6.97;1.10;;;;;;;3.15;73.65;98769.59;5032596;28;20249;-72
2021/12/02 04:36:31;;;;;;;4.13;0.87;;;;;;;3.15;74.10;98774.88;5030169;28;20209;-71
2021/12/02 04:38:58;;;;;;;4.03;0.73;;;;;;;3.13;73.94;98779.38;5042135;28;20212;-72
2021/12/02 04:41:24;;;;;;;6.50;0.93;;;;;;;3.10;74.78;98780.41;5032597;28;20233;-72
2021/12/02 04:43:51;;;;;;;6.03;1.37;;;;;;;3.10;74.51;98771.69;5026918;28;20591;-72
2021/12/02 04:46:17;;;;;;;8.77;0.83;;;;;;;3.09;75.01;98764.72;5029075;28;20203;-73
2021/12/02 04:48:44;;;;;;;4.73;1.13;;;;;;;3.06;74.17;98778.91;5023812;28;20230;-72
2021/12/02 04:51:10;;;;;;;4.53;0.80;;;;;;;3.06;74.83;98783.31;5031047;28;20616;-71
2021/12/02 04:53:38;;;;;;;2.70;0.77;;;;;;;3.05;75.00;98789.50;5031067;28;20222;-72
2021/12/02 04:56:05;;;;;;;6.00;1.20;;;;;;;3.05;75.15;98789.50;5025206;28;20656;-69
2021/12/02 04:58:32;;;;;;;7.50;1.07;;;;;;;3.03;74.91;98797.53;5039361;28;20203;-72
2021/12/02 05:00:59;;;;;;;3.40;0.90;;;;;;;3.03;74.58;98796.69;5034560;28;20206;-73
2021/12/02 05:03:25;;;;;;;3.07;0.80;;;;;;;3.00;74.65;98791.63;5027162;28;20292;-72
2021/12/02 05:05:52;;;;;;;6.37;0.80;;;;;;;3.00;75.60;98807.38;5025696;28;20680;-73
2021/12/02 05:08:19;;;;;;;3.40;0.87;;;;;;;2.99;75.11;98809.19;5035935;28;20237;-72
2021/12/02 05:10:47;;;;;;;4.47;1.00;;;;;;;2.98;75.61;98806.63;5025767;28;20217;-70
2021/12/02 05:13:13;;;;;;;5.47;0.83;;;;;;;2.97;75.97;98813.69;5019483;28;20226;-72
2021/12/02 05:15:40;;;;;;;2.50;0.90;;;;;;;2.95;76.05;98814.72;5025114;28;20670;-73
2021/12/02 05:18:07;;;;;;;5.80;1.00;;;;;;;2.93;75.57;98812.16;5029660;28;20230;-72
2021/12/02 05:20:33;;;;;;;4.20;0.97;;;;;;;2.92;75.59;98810.47;5027043;28;20214;-72
2021/12/02 05:23:00;;;;;;;4.20;1.20;;;;;;;2.90;76.30;98814.97;5024135;28;20249;-72
2021/12/02 05:25:26;;;;;;;4.67;0.83;;;;;;;2.89;76.68;98815.06;5024545;28;20211;-72
2021/12/02 05:27:54;;;;;;;3.30;1.00;;;;;;;2.88;75.88;98816.00;5020895;28;20234;-72
2021/12/02 05:30:21;;;;;;;8.10;1.37;;;;;;;2.86;76.93;98812.66;5019424;28;20206;-73
2021/12/02 05:32:47;;;;;;;3.20;0.97;;;;;;;2.83;76.54;98818.09;5017708;28;20202;-72
2021/12/02 05:35:14;;;;;;;3.77;0.93;;;;;;;2.82;76.70;98813.78;5016007;28;20199;-71
2021/12/02 05:37:40;;;;;;;4.47;1.10;;;;;;;2.81;77.00;98820.81;5022933;28;20663;-71
2021/12/02 05:40:08;;;;;;;1.77;0.80;;;;;;;2.79;76.96;98817.44;5017335;28;20203;-72
2021/12/02 05:42:35;;;;;;;9.07;1.03;;;;;;;2.77;76.98;98820.16;5016517;28;20609;-71
2021/12/02 05:45:03;;;;;;;3.20;1.07;;;;;;;2.77;77.44;98817.53;5015500;28;20296;-69
2021/12/02 05:47:30;;;;;;;5.20;1.40;;;;;;;2.76;77.73;98821.09;5019360;28;20210;-70
2021/12/02 05:49:56;;;;;;;3.50;1.47;;;;;;;2.73;78.15;98826.53;5020878;28;20217;-72
2021/12/02 05:52:23;;;;;;;5.37;2.10;;;;;;;2.73;78.30;98833.56;5014973;28;20834;-71
2021/12/02 05:54:50;;;;;;;6.77;1.57;;;;;;;2.72;77.93;98839.75;5017342;28;20230;-70
2021/12/02 05:57:17;;;;;;;3.63;1.70;;;;;;;2.71;78.09;98844.16;5019933;28;20203;-71
2021/12/02 05:59:43;;;;;;;4.63;1.30;;;;;;;2.71;78.97;98852.06;5024221;28;20197;-71
2021/12/02 06:02:11;;;;;;;4.90;1.63;;;;;;;2.71;79.11;98844.16;5017066;28;20230;-72
2021/12/02 06:04:39;;;;;;;10.23;2.03;;;;;;;2.72;79.17;98845.00;5022365;28;20321;-72
2021/12/02 06:07:06;;;;;;;4.77;1.40;;;;;;;2.72;79.14;98845.88;5022579;28;20203;-72
2021/12/02 06:09:34;;;;;;;8.23;2.47;;;;;;;2.75;79.73;98855.34;5019625;28;20634;-71
2021/12/02 06:12:01;;;;;;;5.30;2.10;;;;;;;2.73;79.42;98860.69;5024920;28;20202;-72
2021/12/02 06:14:27;;;;;;;4.77;1.70;;;;;;;2.75;80.00;98861.44;5015037;28;20225;-71
2021/12/02 06:16:54;;;;;;;5.47;2.40;;;;;;;2.74;79.30;98865.03;5019654;28;20203;-71
2021/12/02 06:19:22;;;;;;;5.83;2.10;;;;;;;2.74;79.71;98867.66;5025836;28;20225;-71
2021/12/02 06:21:50;;;;;;;4.57;1.90;;;;;;;2.75;79.39;98876.38;5016010;28;20588;-70
2021/12/02 06:24:17;;;;;;;10.80;2.23;;;;;;;2.74;79.61;98880.78;5015889;28;20230;-71
2021/12/02 06:26:43;;;;;;;4.57;1.63;;;;;;;2.74;80.28;98880.78;5014043;28;20210;-71
2021/12/02 06:29:10;;;;;;;4.33;1.63;;;;;;;2.75;80.44;98885.13;5016322;28;20234;-72
2021/12/02 06:31:37;;;;;;;8.93;2.67;;;;;;;2.76;79.58;98881.56;5021444;28;20203;-72
2021/12/02 06:34:04;;;;;;;6.00;1.77;;;;;;;2.76;80.36;98884.19;5034942;28;20241;-72
2021/12/02 06:36:32;;;;;;;7.17;2.13;;;;;;;2.77;80.68;98879.75;5027320;28;20217;-73
2021/12/02 06:38:58;;;;;;;5.97;2.40;;;;;;;2.77;80.54;98880.63;5040137;28;20207;-73
2021/12/02 06:41:25;;;;;;;7.63;2.60;;;;;;;2.79;80.04;98884.00;5025758;28;20305;-73
2021/12/02 06:43:51;;;;;;;5.57;1.77;;;;;;;2.81;80.80;98886.53;5029029;28;20273;-73
2021/12/02 06:46:18;;;;;;;4.90;1.90;;;;;;;2.81;81.08;98885.69;5037387;28;20207;-73
2021/12/02 06:48:46;;;;;;;10.07;2.57;;;;;;;2.81;80.67;98889.16;5027245;28;20234;-73
2021/12/02 06:51:14;;;;;;;5.03;2.10;;;;;;;2.82;80.82;98890.88;5036835;28;20305;-73
2021/12/02 06:53:42;;;;;;;6.60;2.20;;;;;;;2.84;81.24;98893.41;5046682;28;20234;-73
2021/12/02 06:56:09;;;;;;;9.00;2.47;;;;;;;2.85;81.23;98892.47;5042149;28;20304;-73
2021/12/02 06:58:36;;;;;;;7.30;2.53;;;;;;;2.85;80.95;98898.56;5027991;28;20209;-73
2021/12/02 07:01:03;;;;;;;6.67;2.63;;;;;;;2.86;80.83;98904.69;5017556;28;20210;-72
2021/12/02 07:03:29;;;;;;;7.63;2.47;;;;;;;2.85;80.79;98913.50;5040695;28;20233;-73
2021/12/02 07:05:56;;;;;;;4.63;2.50;;;;;;;2.85;80.28;98914.34;5048252;28;20217;-73
2021/12/02 07:08:23;;;;;;;6.80;2.40;;;;;;;2.86;80.38;98920.44;5045921;28;20229;-73
2021/12/02 07:10:51;;;;;;;4.77;2.23;;;;;;;2.85;80.68;98918.75;5046552;28;20655;-72
2021/12/02 07:13:17;;;;;;;7.00;2.03;;;;;;;2.85;81.25;98924.00;5046716;28;20247;-73
2021/12/02 07:15:49;;;;;;;8.20;2.10;;;;;;;2.84;81.20;98922.31;5047246;28;20216;-73
2021/12/02 07:18:16;;;;;;;3.77;2.13;;;;;;;2.84;80.83;98925.78;5047690;28;20586;-73
2021/12/02 07:20:45;;;;;;;12.87;2.33;;;;;;;2.82;80.89;98930.28;5042047;28;20676;-72
2021/12/02 07:23:11;;;;;;;3.80;2.03;;;;;;;2.83;80.70;98931.16;5042615;28;20642;-73
2021/12/02 07:25:40;;;;;;;5.47;2.23;;;;;;;2.83;80.89;98949.53;5046772;28;20209;-74
2021/12/02 07:28:09;;;;;;;8.40;2.40;;;;;;;2.81;81.40;98954.03;5045357;28;20221;-73
2021/12/02 07:30:36;;;;;;;6.17;3.00;;;;;;;2.82;80.78;98963.63;5011165;28;20676;-73
2021/12/02 07:33:05;;;;;;;7.63;2.70;;;;;;;2.83;81.35;98963.53;5013807;28;20250;-72
2021/12/02 07:35:32;;;;;;;7.10;2.70;;;;;;;2.83;81.35;98976.69;5022223;28;20304;-72
2021/12/02 07:38:00;;;;;;;6.40;2.17;;;;;;;2.84;81.30;98988.91;5019235;28;20293;-72
2021/12/02 07:40:28;;;;;;;5.10;2.10;;;;;;;2.85;81.74;98981.84;5010826;28;20199;-72
2021/12/02 07:42:55;;;;;;;5.40;2.43;;;;;;;2.87;81.44;98996.56;5021835;28;20222;-72
2021/12/02 07:45:26;;;;;;;6.87;2.97;;;;;;;2.89;81.72;99001.75;5038189;28;20213;-72
2021/12/02 07:47:53;;;;;;;9.70;2.50;;;;;;;2.89;81.11;99001.75;5015330;28;20684;-73
2021/12/02 07:50:20;;;;;;;7.23;2.43;;;;;;;2.92;81.67;99009.47;5022315;28;20229;-73
2021/12/02 07:52:49;;;;;;;7.30;2.70;;;;;;;2.92;81.19;99015.56;5049821;28;20216;-72
2021/12/02 07:55:17;;;;;;;6.10;1.80;;;;;;;2.93;81.57;99013.78;5028402;28;20202;-73
2021/12/02 07:57:47;;;;;;;4.00;2.03;;;;;;;2.94;82.17;99023.38;5030337;28;20214;-73
2021/12/02 08:00:16;;;;;;;5.27;1.70;;;;;;;2.94;81.71;99026.84;5031733;28;20258;-72
2021/12/02 08:02:45;;;;;;;5.33;1.63;;;;;;;2.93;81.57;99027.78;5036795;28;20218;-73
2021/12/02 08:05:13;;;;;;;4.37;1.50;;;;;;;2.93;82.09;99025.16;5037642;28;20224;-72
2021/12/02 08:07:40;;;;;;;4.83;1.23;;;;;;;2.94;81.93;99034.75;5035051;28;20236;-72
2021/12/02 08:10:08;;;;;;;5.97;1.53;;;;;;;2.96;82.01;99037.28;5040235;28;20237;-72
2021/12/02 08:12:35;;;;;;;4.93;1.37;;;;;;;2.95;81.58;99039.06;5035090;28;20318;-73
2021/12/02 08:15:03;;;;;;;3.27;1.37;;;;;;;2.96;82.21;99043.41;5029816;28;20321;-73
2021/12/02 08:17:29;;;;;;;5.07;1.37;;;;;;;2.97;81.72;99052.13;5035638;28;20682;-73
2021/12/02 08:19:57;;;;;;;3.10;1.07;;;;;;;2.95;81.39;99056.63;5049987;28;20220;-73
2021/12/02 08:22:24;;;;;;;2.50;1.03;;;;;;;2.93;82.11;99056.72;5045827;28;20214;-72
2021/12/02 08:24:51;;;;;;;5.50;1.60;;;;;;;2.90;81.98;99058.66;5033946;28;20721;-73
2021/12/02 08:27:17;;;;;;;4.83;1.50;;;;;;;2.87;81.42;99062.31;5043425;28;20233;-72
2021/12/02 08:29:44;;;;;;;8.73;1.40;;;;;;;2.84;82.09;99070.41;5033484;28;20226;-72
2021/12/02 08:32:11;;;;;;;4.73;1.90;;;;;;;2.79;81.61;99075.06;5031302;28;20207;-72
2021/12/02 08:34:38;;;;;;;4.93;1.70;;;;;;;2.73;81.85;99081.50;5036500;28;20245;-72
2021/12/02 08:37:07;;;;;;;2.60;1.77;;;;;;;2.67;82.06;99087.13;5043371;28;20209;-72
2021/12/02 08:39:34;;;;;;;5.03;2.47;;;;;;;2.63;81.76;99082.97;5034016;28;20302;-72
2021/12/02 08:42:02;;;;;;;4.57;2.40;;;;;;;2.57;81.45;99093.81;5043915;28;20214;-72
2021/12/02 08:44:31;;;;;;;3.53;2.00;;;;;;;2.53;81.94;99096.69;5038576;28;20340;-72
2021/12/02 08:46:58;;;;;;;6.23;2.20;;;;;;;2.49;82.20;99093.41;5024567;28;20214;-72
2021/12/02 08:49:24;;;;;;;6.20;2.40;;;;;;;2.46;82.24;99090.94;5023545;28;20237;-72
2021/12/02 08:51:52;;;;;;;5.37;2.20;;;;;;;2.46;82.36;99096.19;5033423;28;20223;-72
2021/12/02 08:54:20;;;;;;;7.60;2.00;;;;;;;2.48;82.82;99109.25;5036204;28;20234;-72
2021/12/02 08:56:46;;;;;;;3.67;2.17;;;;;;;2.49;82.60;99108.31;5021656;28;20211;-72
2021/12/02 08:59:13;;;;;;;3.77;2.30;;;;;;;2.50;82.61;99112.66;5016757;28;20676;-73
2021/12/02 09:01:40;;;;;;;4.73;1.90;;;;;;;2.51;83.17;99115.16;5020093;28;20218;-72
2021/12/02 09:04:07;;;;;;;5.50;1.73;;;;;;;2.54;83.52;99122.88;5040037;28;20229;-72
2021/12/02 09:06:34;;;;;;;5.60;2.00;;;;;;;2.56;83.50;99126.28;5022206;28;20302;-72
2021/12/02 09:09:01;;;;;;;7.50;2.10;;;;;;;2.58;82.99;99127.03;5033051;28;20230;-72
2021/12/02 09:11:33;;;;;;;6.23;2.40;;;;;;;2.59;83.63;99128.75;5033189;28;20246;-72
2021/12/02 09:14:01;;;;;;;3.33;1.83;;;;;;;2.60;83.68;99125.19;5026763;28;20233;-73
2021/12/02 09:16:29;;;;;;;5.03;2.00;;;;;;;2.64;83.80;99124.09;5037047;28;20642;-72
2021/12/02 09:18:57;;;;;;;5.43;2.50;;;;;;;2.67;83.96;99121.31;5033914;28;20221;-72
2021/12/02 09:21:24;;;;;;;3.93;1.73;;;;;;;2.69;83.75;99126.44;5032704;28;20256;-72
2021/12/02 09:23:51;;;;;;;6.30;1.90;;;;;;;2.72;83.96;99132.38;5032135;28;20230;-72
2021/12/02 09:26:17;;;;;;;3.23;1.60;;;;;;;2.74;84.14;99133.16;5041575;28;20209;-72
2021/12/02 09:28:52;;;;;;;5.40;1.80;;;;;;;2.77;83.97;99121.63;5050881;28;20209;-73
2021/12/02 09:31:18;;;;;;;6.70;3.10;;;;;;;2.79;83.98;99120.59;5025481;28;20206;-72
2021/12/02 09:33:45;;;;;;;7.73;2.03;;;;;;;2.86;84.74;99112.38;5048760;22;20730;-80
2021/12/02 09:36:12;;;;;;;5.73;1.80;;;;;;;2.90;84.82;99116.50;5053961;28;20601;-81
2021/12/02 09:38:38;;;;;;;3.43;1.50;;;;;;;2.95;84.97;99117.09;5043139;28;20214;-80
2021/12/02 09:41:05;;;;;;;4.90;1.97;;;;;;;3.02;85.00;99121.94;5050840;28;20222;-80
2021/12/02 09:43:32;;;;;;;7.53;2.10;;;;;;;3.08;85.16;99132.09;5044094;28;20220;-80
2021/12/02 09:46:00;;;;;;;4.23;1.83;;;;;;;3.12;84.55;99135.41;5034032;28;20236;-80
2021/12/02 09:48:28;;;;;;;10.57;4.30;;;;;;;3.16;84.63;99133.44;5042644;28;20212;-82
2021/12/02 09:51:03;;;;;;;5.50;1.57;;;;;;;3.18;84.94;99127.19;5053727;28;20320;-80
2021/12/02 09:53:34;;;;;;;8.50;5.50;;;;;;;3.22;85.17;99123.44;5046556;28;20565;-80
2021/12/02 09:56:10;;;;;;;4.73;3.03;;;;;;;3.27;85.37;99126.63;5023289;28;20662;-80
2021/12/02 09:58:37;;;;;;;8.70;4.13;;;;;;;3.32;84.99;99136.91;5034053;28;20202;-80
2021/12/02 10:01:08;;;;;;;4.60;3.50;;;;;;;3.32;85.28;99124.59;5043530;28;20643;-80
2021/12/02 10:03:38;;;;;;;5.43;2.50;;;;;;;3.35;85.17;99129.69;5053958;28;20746;-80
2021/12/02 10:06:07;;;;;;;3.23;2.80;;;;;;;3.38;85.24;99129.50;5038639;28;20222;-81
2021/12/02 10:08:39;;;;;;;9.77;6.67;;;;;;;3.40;85.46;99126.78;5045876;28;20214;-80
2021/12/02 10:11:08;;;;;;;3.90;3.50;;;;;;;3.42;84.96;99132.78;5044581;28;20322;-80
2021/12/02 10:13:43;;;;;;;4.40;1.93;;;;;;;3.45;85.13;99143.97;5037695;28;20252;-80
2021/12/02 10:16:20;;;;;;;5.83;2.13;;;;;;;3.49;84.81;99136.75;5033718;28;20638;-80
2021/12/02 10:19:02;;;;;;;2.63;1.13;;;;;;;3.50;84.52;99135.81;5050127;28;20292;-81
2021/12/02 10:21:35;;;;;;;2.77;1.30;;;;;;;3.46;84.57;99140.41;5053557;28;20659;-82
2021/12/02 10:24:05;;;;;;;3.23;1.10;;;;;;;3.44;84.22;99142.28;5038817;28;20241;-81
2021/12/02 10:26:37;;;;;;;3.17;1.50;;;;;;;3.39;84.29;99147.00;5053512;28;20234;-82
2021/12/02 10:29:11;;;;;;;6.30;1.23;;;;;;;3.39;83.66;99152.25;5049426;28;20652;-82
2021/12/02 10:31:43;;;;;;;5.90;1.10;;;;;;;3.40;84.01;99153.09;5033073;28;20230;-82
2021/12/02 10:34:10;;;;;;;3.87;1.20;;;;;;;3.37;83.86;99159.38;5039602;28;20217;-82
2021/12/02 10:36:39;;;;;;;2.87;1.03;;;;;;;3.37;83.06;99151.50;5048460;28;20710;-82
2021/12/02 10:39:12;;;;;;;5.33;1.10;;;;;;;3.36;83.02;99155.06;5033470;28;20206;-82
2021/12/02 10:41:43;;;;;;;4.80;1.03;;;;;;;3.36;82.83;99155.06;5031731;28;20206;-81
2021/12/02 10:44:23;;;;;;;3.80;1.10;;;;;;;3.36;83.49;99155.06;5034435;28;20206;-81
2021/12/02 10:47:00;;;;;;;2.53;1.07;;;;;;;3.37;82.65;99156.75;5034523;28;20712;-82
2021/12/02 10:49:28;;;;;;;5.67;1.50;;;;;;;3.39;83.53;99159.31;5032023;28;20202;-82
2021/12/02 10:51:56;;;;;;;5.17;1.40;;;;;;;3.41;83.39;99155.63;5032318;28;20216;-82
2021/12/02 10:54:25;;;;;;;4.20;1.17;;;;;;;3.41;83.37;99160.03;5034956;28;20208;-82
2021/12/02 10:56:54;;;;;;;3.53;1.00;;;;;;;3.43;82.54;99163.44;5033418;28;20222;-82
2021/12/02 10:59:33;;;;;;;1.67;1.20;;;;;;;3.45;83.56;99165.03;5031275;28;20202;-82
2021/12/02 11:02:04;;;;;;;2.13;0.80;;;;;;;3.48;83.33;99166.66;5033802;28;20202;-82
2021/12/02 11:04:40;;;;;;;3.80;1.10;;;;;;;3.49;82.85;99166.56;5035016;28;20592;-82
2021/12/02 11:07:11;;;;;;;3.23;0.83;;;;;;;3.52;82.63;99169.97;5031663;28;20209;-82
2021/12/02 11:09:39;;;;;;;4.13;1.10;;;;;;;3.54;83.52;99182.09;5030965;28;20676;-82
2021/12/02 11:12:12;;;;;;;1.90;1.10;;;;;;;3.57;82.79;99167.91;5032179;28;20280;-82
2021/12/02 11:14:43;;;;;;;4.23;1.30;;;;;;;3.60;83.57;99165.94;5032690;28;20198;-82
2021/12/02 11:17:14;;;;;;;1.73;0.97;;;;;;;3.60;83.50;99175.59;5032660;28;20214;-81
2021/12/02 11:19:44;;;;;;;2.27;1.20;;;;;;;3.59;83.57;99180.03;5031569;28;20194;-82
2021/12/02 11:22:13;;;;;;;2.10;1.50;;;;;;;3.61;83.44;99177.31;5031567;28;20217;-82
2021/12/02 11:24:40;;;;;;;1.70;1.37;;;;;;;3.59;83.20;99179.19;5031615;28;20195;-81
2021/12/02 11:27:08;;;;;;;4.33;1.83;;;;;;;3.59;83.10;99180.03;5030318;28;20222;-82
2021/12/02 11:29:49;;;;;;;2.43;1.03;;;;;;;3.60;82.85;99186.13;5030918;28;20675;-82
2021/12/02 11:32:56;;;;;;;3.23;1.37;;;;;;;3.60;82.46;99188.78;5035066;28;20210;-82
2021/12/02 11:35:37;;;;;;;3.07;1.30;;;;;;;3.60;82.44;99184.34;5014862;28;20321;-82
2021/12/02 11:38:07;;;;;;;2.97;1.40;;;;;;;3.62;82.83;99192.16;5031613;28;20649;-82
2021/12/02 11:40:36;;;;;;;1.70;1.23;;;;;;;3.63;83.01;99199.13;5033203;28;20209;-81
2021/12/02 11:43:04;;;;;;;5.13;1.70;;;;;;;3.62;82.72;99195.66;5041590;28;20213;-82
2021/12/02 11:45:33;;;;;;;2.17;0.80;;;;;;;3.60;82.85;99197.50;5036579;28;20233;-82
2021/12/02 11:48:01;;;;;;;2.97;1.20;;;;;;;3.58;82.14;99199.41;5034107;28;20668;-82
2021/12/02 11:50:30;;;;;;;3.37;1.10;;;;;;;3.55;82.50;99201.38;5040806;28;20235;-82
2021/12/02 11:52:57;;;;;;;4.40;1.20;;;;;;;3.53;81.87;99200.59;5049389;28;20575;-82